Time;durP1;ratioP1;P1;durP2;ratioP2;P2;SDS_P1;SDS_P2;PMS_P1;PMS_P2;Temp;Humidity;BMP_temperature;BMP_pressure;BME280_temperature;BME280_humidity;BME280_pressure;Samples;Min_cycle;Max_cycle;Signal;HPM_P1;HPM_P2
2022/06/30 00:00:16;;;;;;;2.58;1.80;;;23.10;99.90;;;;;;5010450;28;20653;-65
2022/06/30 00:02:42;;;;;;;2.93;1.73;;;23.00;99.90;;;;;;5012477;28;20683;-65
2022/06/30 00:05:08;;;;;;;4.65;1.90;;;23.00;99.90;;;;;;5012871;28;20645;-66
2022/06/30 00:07:33;;;;;;;3.08;1.77;;;23.00;99.90;;;;;;5011638;28;20398;-66
2022/06/30 00:09:59;;;;;;;2.83;1.70;;;23.00;99.90;;;;;;5011830;28;20553;-66
2022/06/30 00:12:25;;;;;;;2.60;1.50;;;22.90;99.90;;;;;;5013740;28;20477;-67
2022/06/30 00:14:50;;;;;;;2.53;1.70;;;22.90;99.90;;;;;;5012914;28;20814;-66
2022/06/30 00:17:16;;;;;;;3.10;1.88;;;22.80;99.90;;;;;;5011978;28;20667;-66
2022/06/30 00:19:42;;;;;;;2.97;1.77;;;22.70;99.90;;;;;;5031942;28;20786;-66
2022/06/30 00:22:08;;;;;;;2.83;2.00;;;22.80;99.90;;;;;;5013832;28;20476;-66
2022/06/30 00:24:34;;;;;;;2.15;1.45;;;22.70;99.90;;;;;;5045665;28;20398;-66
2022/06/30 00:27:00;;;;;;;2.33;1.80;;;22.60;99.90;;;;;;5011172;28;20394;-66
2022/06/30 00:29:25;;;;;;;3.50;1.77;;;22.50;99.90;;;;;;5010932;28;20391;-65
2022/06/30 00:31:51;;;;;;;2.83;1.87;;;22.50;99.90;;;;;;5028626;28;20395;-66
2022/06/30 00:34:16;;;;;;;2.35;1.88;;;22.40;99.90;;;;;;5012813;28;20383;-66
2022/06/30 00:36:43;;;;;;;4.53;1.70;;;22.40;99.90;;;;;;5030154;28;20430;-65
2022/06/30 00:39:09;;;;;;;3.28;1.90;;;22.30;99.90;;;;;;5013375;28;20391;-65
2022/06/30 00:41:39;;;;;;;3.10;1.90;;;22.30;99.90;;;;;;5011086;28;20406;-65
2022/06/30 00:44:07;;;;;;;3.92;2.10;;;22.20;99.90;;;;;;5011960;28;20397;-65
2022/06/30 00:46:33;;;;;;;4.22;2.03;;;22.20;99.90;;;;;;5012912;28;20387;-65
2022/06/30 00:48:59;;;;;;;5.00;1.73;;;22.10;99.90;;;;;;5030696;28;20379;-65
2022/06/30 00:51:25;;;;;;;5.88;1.90;;;22.10;99.90;;;;;;5012474;28;20472;-65
2022/06/30 00:53:54;;;;;;;2.83;1.87;;;22.10;99.90;;;;;;5012171;28;20714;-66
2022/06/30 00:56:24;;;;;;;2.57;1.77;;;22.10;99.90;;;;;;5028319;28;20415;-65
2022/06/30 00:58:52;;;;;;;3.45;1.95;;;22.10;99.90;;;;;;5011404;28;20478;-65
2022/06/30 01:01:20;;;;;;;3.65;1.98;;;22.10;99.90;;;;;;5011446;28;20826;-66
2022/06/30 01:03:45;;;;;;;2.17;1.70;;;22.00;99.90;;;;;;5010925;28;20371;-65
2022/06/30 01:06:11;;;;;;;3.03;2.00;;;22.00;99.90;;;;;;5011628;28;20457;-65
2022/06/30 01:08:38;;;;;;;3.03;1.88;;;22.00;99.90;;;;;;5013215;28;20398;-66
2022/06/30 01:13:48;;;;;;;2.90;1.95;;;21.80;99.90;;;;;;5032728;28;20386;-65
2022/06/30 01:16:14;;;;;;;2.22;1.67;;;21.70;99.90;;;;;;5016584;28;20429;-65
2022/06/30 01:18:40;;;;;;;4.68;2.00;;;21.70;99.90;;;;;;5032310;28;20765;-66
2022/06/30 01:21:05;;;;;;;2.53;1.57;;;21.60;99.90;;;;;;5016058;28;20395;-65
2022/06/30 01:23:31;;;;;;;2.00;1.75;;;21.50;99.90;;;;;;5033004;28;20390;-65
2022/06/30 01:25:57;;;;;;;3.28;1.92;;;21.60;99.90;;;;;;5013911;28;20476;-66
2022/06/30 01:28:22;;;;;;;5.17;2.03;;;21.50;99.90;;;;;;5032927;28;20433;-65
2022/06/30 01:30:48;;;;;;;2.67;1.95;;;21.50;99.90;;;;;;5013730;28;20386;-66
2022/06/30 01:33:14;;;;;;;2.30;1.93;;;21.40;99.90;;;;;;5030907;28;20482;-66
2022/06/30 01:35:39;;;;;;;3.38;2.03;;;21.50;99.90;;;;;;5013393;28;20506;-66
2022/06/30 01:38:06;;;;;;;3.97;2.00;;;21.40;99.90;;;;;;5032990;28;20407;-66
2022/06/30 01:40:35;;;;;;;2.20;1.77;;;21.30;99.90;;;;;;5015214;28;22212;-66
2022/06/30 01:43:02;;;;;;;2.17;1.60;;;21.30;99.90;;;;;;5014699;28;20407;-66
2022/06/30 01:45:28;;;;;;;4.18;2.25;;;21.30;99.90;;;;;;5015498;28;20485;-67
2022/06/30 01:47:55;;;;;;;2.93;1.97;;;21.30;99.90;;;;;;5014877;28;20843;-66
2022/06/30 01:50:26;;;;;;;2.88;2.17;;;21.20;99.90;;;;;;5032465;28;20390;-66
2022/06/30 01:52:52;;;;;;;3.50;2.10;;;21.20;99.90;;;;;;5014585;28;20410;-66
2022/06/30 01:55:17;;;;;;;3.33;2.20;;;21.20;99.90;;;;;;5013371;28;20679;-66
2022/06/30 01:57:43;;;;;;;3.95;2.10;;;21.20;99.90;;;;;;5015095;28;20906;-66
2022/06/30 02:00:12;;;;;;;3.58;1.95;;;21.10;99.90;;;;;;5013064;28;20395;-66
2022/06/30 02:02:38;;;;;;;2.60;1.98;;;21.10;99.90;;;;;;5031230;28;20387;-65
2022/06/30 02:05:05;;;;;;;2.13;1.90;;;21.10;99.90;;;;;;5043860;28;20470;-66
2022/06/30 02:07:30;;;;;;;3.53;2.20;;;21.10;99.90;;;;;;5011367;28;20395;-65
2022/06/30 02:09:56;;;;;;;2.58;1.90;;;21.00;99.90;;;;;;5011902;28;20391;-65
2022/06/30 02:15:10;;;;;;;2.88;2.17;;;21.00;99.90;;;;;;5030562;28;20397;-66
2022/06/30 02:17:39;;;;;;;4.35;1.95;;;20.90;99.90;;;;;;5030612;28;20721;-65
2022/06/30 02:20:10;;;;;;;3.30;2.17;;;20.90;99.90;;;;;;5014713;28;20872;-65
2022/06/30 02:22:37;;;;;;;1.88;1.70;;;20.90;99.90;;;;;;5014221;28;20639;-65
2022/06/30 02:25:03;;;;;;;5.38;1.98;;;20.80;99.90;;;;;;5014547;28;20398;-65
2022/06/30 02:27:29;;;;;;;4.30;2.35;;;20.70;99.90;;;;;;5013987;28;20997;-65
2022/06/30 02:29:54;;;;;;;3.67;1.90;;;20.70;99.90;;;;;;5046403;28;20453;-65
2022/06/30 02:32:21;;;;;;;2.00;1.70;;;20.70;99.90;;;;;;5014570;28;20441;-66
2022/06/30 02:34:51;;;;;;;2.53;2.20;;;20.70;99.90;;;;;;5014657;28;20484;-65
2022/06/30 02:37:18;;;;;;;3.10;2.40;;;20.60;99.90;;;;;;5014376;28;20472;-66
2022/06/30 02:39:43;;;;;;;3.65;2.38;;;20.60;99.90;;;;;;5013994;28;20407;-65
2022/06/30 02:42:09;;;;;;;3.07;2.37;;;20.60;99.90;;;;;;5014794;28;20417;-65
2022/06/30 02:44:35;;;;;;;3.33;2.33;;;20.60;99.90;;;;;;5014415;28;20393;-65
2022/06/30 02:47:01;;;;;;;3.07;2.20;;;20.50;99.90;;;;;;5030578;28;20383;-65
2022/06/30 02:49:27;;;;;;;3.90;2.27;;;20.40;99.90;;;;;;5012482;28;20390;-66
2022/06/30 02:51:52;;;;;;;3.37;2.17;;;20.40;99.90;;;;;;5013335;28;20456;-65
2022/06/30 02:54:18;;;;;;;3.10;2.33;;;20.40;99.90;;;;;;5012951;28;20502;-66
2022/06/30 02:56:43;;;;;;;2.50;2.10;;;20.40;99.90;;;;;;5014111;28;20425;-65
2022/06/30 02:59:09;;;;;;;3.37;2.30;;;20.40;99.90;;;;;;5048931;28;20765;-65
2022/06/30 03:01:35;;;;;;;3.38;2.60;;;20.40;99.90;;;;;;5015738;28;20387;-65
2022/06/30 03:04:01;;;;;;;2.93;2.20;;;20.30;99.90;;;;;;5017298;28;20391;-65
2022/06/30 03:06:28;;;;;;;3.50;2.20;;;20.30;99.90;;;;;;5015534;28;20414;-66
2022/06/30 03:08:55;;;;;;;3.25;2.30;;;20.30;99.90;;;;;;5032450;28;20391;-66
2022/06/30 03:11:21;;;;;;;4.13;2.67;;;20.30;99.90;;;;;;5014670;28;20485;-66
2022/06/30 03:13:47;;;;;;;3.78;2.30;;;20.20;99.90;;;;;;5014402;28;20783;-65
2022/06/30 03:16:13;;;;;;;2.73;2.33;;;20.20;99.90;;;;;;5016120;28;20452;-66
2022/06/30 03:18:39;;;;;;;4.00;2.35;;;20.20;99.90;;;;;;5015141;28;20387;-66
2022/06/30 03:21:06;;;;;;;3.50;2.67;;;20.10;99.90;;;;;;5014749;28;20813;-65
2022/06/30 03:23:31;;;;;;;3.47;2.50;;;20.10;99.90;;;;;;5016405;28;20421;-65
2022/06/30 03:25:57;;;;;;;4.80;2.33;;;20.10;99.90;;;;;;5033395;28;20399;-66
2022/06/30 03:28:23;;;;;;;3.27;2.27;;;20.10;99.90;;;;;;5015467;28;20399;-66
2022/06/30 03:30:48;;;;;;;3.00;2.38;;;20.10;99.90;;;;;;5016312;28;20383;-66
2022/06/30 03:33:15;;;;;;;3.78;2.60;;;20.10;99.90;;;;;;5017163;28;20395;-65
2022/06/30 03:35:41;;;;;;;5.60;2.65;;;20.00;99.90;;;;;;5033872;28;20406;-66
2022/06/30 03:38:06;;;;;;;4.20;2.25;;;20.10;99.90;;;;;;5016279;28;20415;-65
2022/06/30 03:40:32;;;;;;;5.17;2.50;;;20.00;99.90;;;;;;5032208;28;20411;-65
2022/06/30 03:42:58;;;;;;;3.13;2.50;;;20.10;99.90;;;;;;5031243;28;20468;-66
2022/06/30 03:45:24;;;;;;;4.03;2.23;;;20.10;99.90;;;;;;5013763;28;20394;-66
2022/06/30 03:47:50;;;;;;;3.47;2.40;;;20.00;99.90;;;;;;5013445;28;20451;-66
2022/06/30 03:50:15;;;;;;;2.85;2.30;;;20.00;99.90;;;;;;5013570;28;20386;-66
2022/06/30 03:52:41;;;;;;;4.23;2.80;;;20.00;99.90;;;;;;5013095;28;20395;-66
2022/06/30 03:55:07;;;;;;;3.65;2.42;;;20.00;99.90;;;;;;5012625;28;20477;-65
2022/06/30 03:57:33;;;;;;;5.28;2.50;;;19.90;99.90;;;;;;5013652;28;20391;-65
2022/06/30 03:59:58;;;;;;;3.60;2.28;;;20.00;99.90;;;;;;5030600;28;20475;-66
2022/06/30 04:02:24;;;;;;;2.93;2.40;;;20.00;99.90;;;;;;5010358;28;20485;-65
2022/06/30 04:04:49;;;;;;;3.40;2.63;;;19.90;99.90;;;;;;5013214;28;20391;-65
2022/06/30 04:07:15;;;;;;;3.67;2.40;;;20.00;99.90;;;;;;5013884;28;20757;-66
2022/06/30 04:09:40;;;;;;;4.63;2.60;;;19.90;99.90;;;;;;5015077;28;20411;-66
2022/06/30 04:12:06;;;;;;;4.30;2.60;;;19.90;99.90;;;;;;5014570;28;21036;-66
2022/06/30 04:14:31;;;;;;;5.70;2.70;;;19.80;99.90;;;;;;5014232;28;20457;-66
2022/06/30 04:16:57;;;;;;;3.73;2.30;;;19.90;99.90;;;;;;5014276;28;20497;-66
2022/06/30 04:19:23;;;;;;;3.80;2.60;;;19.90;99.90;;;;;;5012771;28;20670;-66
2022/06/30 04:21:49;;;;;;;3.27;2.43;;;20.00;99.90;;;;;;5009437;28;20399;-66
2022/06/30 04:24:14;;;;;;;5.65;2.42;;;20.00;99.90;;;;;;5009038;28;20383;-66
2022/06/30 04:26:40;;;;;;;3.60;2.53;;;19.90;99.90;;;;;;5008973;28;20468;-66
2022/06/30 04:29:05;;;;;;;6.03;2.23;;;20.00;99.90;;;;;;5008996;28;20430;-66
2022/06/30 04:34:15;;;;;;;3.67;2.58;;;20.00;99.90;;;;;;5027000;28;20385;-66
2022/06/30 04:36:41;;;;;;;3.72;2.67;;;20.00;99.90;;;;;;5010364;28;20426;-66
2022/06/30 04:39:06;;;;;;;3.67;2.70;;;20.00;99.90;;;;;;5010099;28;20644;-66
2022/06/30 04:41:32;;;;;;;3.03;2.28;;;20.00;99.90;;;;;;5027570;28;20819;-66
2022/06/30 04:43:59;;;;;;;5.13;2.60;;;20.00;99.90;;;;;;5008967;28;20457;-66
2022/06/30 04:46:25;;;;;;;4.47;2.57;;;20.00;99.90;;;;;;5009123;28;20392;-66
2022/06/30 04:48:51;;;;;;;3.38;2.25;;;20.00;99.90;;;;;;5024925;28;20600;-65
2022/06/30 04:51:18;;;;;;;3.13;2.20;;;20.00;99.90;;;;;;5005091;28;20390;-65
2022/06/30 04:53:44;;;;;;;5.05;2.50;;;20.10;99.90;;;;;;5005270;28;20667;-65
2022/06/30 04:56:10;;;;;;;2.70;2.10;;;20.20;99.90;;;;;;5005720;28;20415;-65
2022/06/30 04:58:37;;;;;;;3.42;2.28;;;20.10;99.90;;;;;;5005581;28;20790;-66
2022/06/30 05:01:03;;;;;;;3.45;2.50;;;20.10;99.90;;;;;;5004475;28;20717;-66
2022/06/30 05:03:29;;;;;;;4.87;2.77;;;20.20;99.90;;;;;;5006803;28;20383;-66
2022/06/30 05:05:55;;;;;;;3.78;2.70;;;20.20;99.90;;;;;;5007038;28;20402;-66
2022/06/30 05:08:21;;;;;;;5.10;2.57;;;20.20;99.90;;;;;;5006426;28;20387;-65
2022/06/30 05:10:47;;;;;;;3.75;2.30;;;20.20;99.90;;;;;;5006925;28;20414;-66
2022/06/30 05:13:12;;;;;;;4.20;2.50;;;20.30;99.90;;;;;;5005842;28;20670;-65
2022/06/30 05:15:38;;;;;;;3.67;2.35;;;20.30;99.90;;;;;;5007457;28;20688;-66
2022/06/30 05:18:04;;;;;;;3.67;2.20;;;20.30;99.90;;;;;;5007438;28;20387;-66
2022/06/30 05:20:30;;;;;;;5.43;2.75;;;20.30;99.90;;;;;;5007670;28;20671;-66
2022/06/30 05:22:55;;;;;;;4.72;2.60;;;20.40;99.90;;;;;;5008449;28;20996;-66
2022/06/30 05:28:06;;;;;;;5.72;2.65;;;20.50;99.90;;;;;;5024156;28;20453;-66
2022/06/30 05:30:32;;;;;;;3.13;2.30;;;20.60;99.90;;;;;;5006731;28;20712;-66
2022/06/30 05:32:58;;;;;;;2.63;2.17;;;20.60;99.90;;;;;;5008423;28;20465;-67
2022/06/30 05:35:23;;;;;;;4.13;2.58;;;20.70;99.90;;;;;;5009620;28;20404;-66
2022/06/30 05:37:49;;;;;;;4.27;2.40;;;20.70;99.90;;;;;;5026241;28;20419;-66
2022/06/30 05:40:14;;;;;;;5.88;2.45;;;20.70;99.90;;;;;;5008100;28;20845;-66
2022/06/30 05:42:40;;;;;;;4.07;2.43;;;20.80;99.90;;;;;;5008427;28;20458;-66
2022/06/30 05:45:06;;;;;;;3.83;2.50;;;20.80;99.90;;;;;;5007833;28;20391;-66
2022/06/30 05:47:31;;;;;;;4.88;2.60;;;20.90;99.90;;;;;;5022927;28;20387;-66
2022/06/30 05:49:57;;;;;;;3.27;2.30;;;20.90;99.90;;;;;;5005625;28;20397;-66
2022/06/30 05:52:22;;;;;;;4.78;2.75;;;20.90;99.90;;;;;;5006362;28;20391;-67
2022/06/30 05:54:48;;;;;;;2.90;2.40;;;20.90;99.90;;;;;;5006289;28;20918;-66
2022/06/30 05:57:14;;;;;;;4.73;2.50;;;20.90;99.90;;;;;;5001017;28;20502;-66
2022/06/30 05:59:39;;;;;;;5.10;2.30;;;20.90;99.90;;;;;;5000249;28;20718;-66
2022/06/30 06:02:05;;;;;;;5.25;2.58;;;20.90;99.90;;;;;;5016283;28;20466;-66
2022/06/30 06:04:30;;;;;;;3.00;2.20;;;20.90;99.90;;;;;;4996816;28;20395;-66
2022/06/30 06:06:56;;;;;;;4.10;2.28;;;20.90;99.90;;;;;;4995210;28;20383;-66
2022/06/30 06:09:21;;;;;;;2.47;2.00;;;20.90;99.90;;;;;;5014577;28;20527;-66
2022/06/30 06:11:47;;;;;;;4.03;2.45;;;21.00;99.90;;;;;;4998553;28;20394;-66
2022/06/30 06:14:13;;;;;;;4.23;2.30;;;21.00;99.90;;;;;;5018251;28;20683;-66
2022/06/30 06:16:38;;;;;;;4.22;2.60;;;21.00;99.90;;;;;;5017357;28;20414;-66
2022/06/30 06:19:04;;;;;;;3.27;2.47;;;21.10;99.90;;;;;;4998470;28;20397;-66
2022/06/30 06:21:30;;;;;;;3.67;2.50;;;21.10;99.90;;;;;;4999348;28;20394;-66
2022/06/30 06:23:55;;;;;;;6.28;2.70;;;21.10;99.90;;;;;;4998985;28;20614;-66
2022/06/30 06:26:21;;;;;;;3.30;2.50;;;21.10;99.90;;;;;;4996860;28;20652;-66
2022/06/30 06:31:31;;;;;;;5.22;2.80;;;21.30;99.90;;;;;;5020235;28;20417;-66
2022/06/30 06:33:57;;;;;;;3.97;2.70;;;21.30;99.90;;;;;;5018187;28;20399;-66
2022/06/30 06:36:23;;;;;;;6.50;2.50;;;21.30;99.90;;;;;;5002850;28;20413;-66
2022/06/30 06:38:48;;;;;;;6.38;2.78;;;21.40;99.90;;;;;;5000419;28;20491;-66
2022/06/30 06:41:15;;;;;;;12.30;4.33;;;21.30;99.90;;;;;;5018349;28;20407;-65
2022/06/30 06:43:41;;;;;;;6.63;3.80;;;21.40;99.90;;;;;;5021625;28;20714;-65
2022/06/30 06:46:06;;;;;;;5.70;3.08;;;21.50;99.90;;;;;;5023247;28;20391;-65
2022/06/30 06:48:32;;;;;;;8.77;5.60;;;21.50;99.90;;;;;;5005750;28;20418;-65
2022/06/30 06:50:58;;;;;;;8.13;4.90;;;21.50;99.90;;;;;;5024340;28;20391;-65
2022/06/30 06:53:24;;;;;;;9.27;4.80;;;21.60;99.90;;;;;;5006730;28;20650;-66
2022/06/30 06:55:49;;;;;;;14.17;4.67;;;21.60;99.90;;;;;;5007260;28;20520;-66
2022/06/30 06:58:15;;;;;;;11.68;4.18;;;21.70;99.90;;;;;;5005263;28;20391;-66
2022/06/30 07:00:41;;;;;;;4.40;2.80;;;21.70;99.90;;;;;;5004272;28;20383;-66
2022/06/30 07:03:07;;;;;;;4.45;2.80;;;21.70;99.90;;;;;;5039088;28;20485;-66
2022/06/30 07:05:32;;;;;;;3.70;2.50;;;21.70;99.90;;;;;;5001516;28;20385;-66
2022/06/30 07:08:02;;;;;;;6.33;3.53;;;21.70;99.90;;;;;;4997187;28;20617;-66
2022/06/30 07:10:28;;;;;;;6.23;2.90;;;21.80;99.90;;;;;;4998493;28;20801;-66
2022/06/30 07:12:55;;;;;;;4.03;2.70;;;21.80;99.90;;;;;;4999552;28;20713;-66
2022/06/30 07:15:23;;;;;;;4.13;2.40;;;21.80;99.90;;;;;;4999526;28;20543;-69
2022/06/30 07:17:49;;;;;;;3.80;2.00;;;21.90;99.90;;;;;;5019332;28;20394;-65
2022/06/30 07:20:15;;;;;;;4.30;2.50;;;22.00;99.90;;;;;;5003288;28;20461;-66
2022/06/30 07:22:41;;;;;;;4.15;2.35;;;22.00;99.90;;;;;;5020634;28;20786;-65
2022/06/30 07:25:07;;;;;;;3.03;2.00;;;22.00;99.90;;;;;;5000501;28;20407;-65
2022/06/30 07:27:33;;;;;;;5.70;2.90;;;22.10;99.90;;;;;;5000804;28;20403;-66
2022/06/30 07:29:59;;;;;;;3.90;2.47;;;22.10;99.90;;;;;;4996333;28;20860;-66
2022/06/30 07:32:25;;;;;;;3.50;2.40;;;22.10;99.90;;;;;;4996636;28;20490;-66
2022/06/30 07:34:50;;;;;;;2.75;2.40;;;22.20;99.90;;;;;;4995550;28;20576;-66
2022/06/30 07:37:16;;;;;;;2.83;2.40;;;22.20;99.90;;;;;;5013365;28;20414;-66
2022/06/30 07:39:41;;;;;;;2.27;2.07;;;22.30;99.90;;;;;;4995609;28;20715;-66
2022/06/30 07:42:07;;;;;;;2.07;1.90;;;22.30;99.90;;;;;;5014219;28;20437;-66
2022/06/30 07:44:33;;;;;;;3.73;2.70;;;22.40;99.90;;;;;;4999961;28;20391;-66
2022/06/30 07:46:58;;;;;;;5.72;2.60;;;22.40;99.90;;;;;;5017142;28;20608;-66
2022/06/30 07:49:24;;;;;;;3.42;2.35;;;22.50;99.90;;;;;;5000198;28;20798;-66
2022/06/30 07:51:50;;;;;;;2.73;2.47;;;22.50;99.90;;;;;;5000355;28;20666;-66
2022/06/30 07:54:15;;;;;;;3.85;2.58;;;22.60;99.90;;;;;;4998918;28;20395;-65
2022/06/30 07:56:41;;;;;;;3.83;2.43;;;22.60;99.90;;;;;;5013054;28;20593;-65
2022/06/30 07:59:07;;;;;;;2.58;2.20;;;22.60;99.90;;;;;;4994148;28;20665;-65
2022/06/30 08:01:33;;;;;;;4.88;2.80;;;22.70;99.90;;;;;;4994642;28;20427;-65
2022/06/30 08:03:58;;;;;;;4.78;2.65;;;22.70;99.90;;;;;;5011776;28;20414;-65
2022/06/30 08:06:24;;;;;;;3.50;2.60;;;22.80;99.90;;;;;;4991783;28;20398;-65
2022/06/30 08:08:50;;;;;;;4.53;2.42;;;22.80;99.90;;;;;;4995560;28;20543;-65
2022/06/30 08:11:17;;;;;;;3.55;2.30;;;22.80;99.90;;;;;;4996675;28;20630;-64
2022/06/30 08:13:42;;;;;;;2.57;1.87;;;22.90;99.90;;;;;;4996805;28;20460;-65
2022/06/30 08:16:10;;;;;;;2.70;2.30;;;22.90;99.90;;;;;;5013818;28;20657;-64
2022/06/30 08:18:35;;;;;;;3.27;2.17;;;22.90;99.90;;;;;;4993723;28;20483;-65
2022/06/30 08:21:01;;;;;;;4.50;2.33;;;23.00;99.90;;;;;;4995628;28;20462;-65
2022/06/30 08:23:27;;;;;;;2.30;2.00;;;23.10;99.90;;;;;;5015768;28;20762;-65
2022/06/30 08:25:52;;;;;;;5.40;2.77;;;23.10;99.90;;;;;;4997961;28;20612;-65
2022/06/30 08:28:18;;;;;;;2.50;2.03;;;23.20;99.90;;;;;;4995918;28;20410;-65
2022/06/30 08:30:44;;;;;;;2.67;1.97;;;23.20;99.90;;;;;;5016737;28;20384;-65
2022/06/30 08:33:10;;;;;;;3.05;2.40;;;23.30;99.90;;;;;;5038951;28;20382;-66
2022/06/30 08:35:35;;;;;;;2.57;2.20;;;23.30;99.90;;;;;;5021947;28;20421;-65
2022/06/30 08:38:01;;;;;;;4.32;2.60;;;23.40;99.90;;;;;;5003045;28;20455;-66
2022/06/30 08:43:13;;;;;;;2.97;2.17;;;23.50;99.90;;;;;;5002440;28;20419;-66
2022/06/30 08:45:39;;;;;;;2.92;2.03;;;23.50;99.90;;;;;;5036834;28;20384;-67
2022/06/30 08:48:05;;;;;;;4.70;2.58;;;23.50;99.90;;;;;;5003545;28;20488;-66
2022/06/30 08:50:31;;;;;;;3.15;1.98;;;23.60;99.90;;;;;;5005706;28;20515;-66
2022/06/30 08:52:58;;;;;;;2.57;2.27;;;23.70;99.90;;;;;;5036531;28;20883;-66
2022/06/30 08:55:30;;;;;;;5.13;2.50;;;23.60;99.90;;;;;;5037260;28;20715;-66
2022/06/30 08:58:01;;;;;;;4.50;2.63;;;23.70;99.90;;;;;;5037952;28;20471;-66
2022/06/30 09:00:27;;;;;;;3.17;2.60;;;23.70;99.90;;;;;;5035587;28;20385;-67
2022/06/30 09:02:53;;;;;;;5.18;2.53;;;23.60;99.90;;;;;;5040348;28;20537;-66
2022/06/30 09:05:18;;;;;;;4.27;2.40;;;23.60;99.90;;;;;;5007289;28;20894;-67
2022/06/30 09:07:44;;;;;;;2.38;2.17;;;23.70;99.90;;;;;;5040645;28;20385;-67
2022/06/30 09:10:10;;;;;;;3.00;2.00;;;23.80;99.90;;;;;;5009822;28;20416;-67
2022/06/30 09:12:35;;;;;;;3.67;2.10;;;23.90;99.90;;;;;;5041885;28;20381;-67
2022/06/30 09:15:01;;;;;;;2.97;1.93;;;23.90;99.90;;;;;;5001666;28;20532;-67
2022/06/30 09:17:29;;;;;;;3.27;2.10;;;24.00;99.90;;;;;;5001613;28;20503;-67
2022/06/30 09:20:08;;;;;;;1.80;1.70;;;24.00;99.90;;;;;;5034676;28;20373;-67
2022/06/30 09:22:43;;;;;;;3.78;2.20;;;24.10;99.90;;;;;;5034462;28;20480;-67
2022/06/30 09:25:20;;;;;;;3.80;2.30;;;24.10;99.90;;;;;;5002310;28;20408;-67
2022/06/30 09:27:47;;;;;;;2.60;2.07;;;24.20;99.90;;;;;;5034964;28;20413;-66
2022/06/30 09:30:20;;;;;;;3.35;2.13;;;24.20;99.90;;;;;;5035579;28;20408;-66
2022/06/30 09:32:55;;;;;;;2.20;1.90;;;24.20;99.90;;;;;;5039253;28;20389;-66
2022/06/30 09:35:26;;;;;;;2.97;2.13;;;24.20;99.90;;;;;;5005367;28;20384;-65
2022/06/30 09:38:09;;;;;;;3.30;2.13;;;24.30;99.90;;;;;;5035610;28;20696;-66
2022/06/30 09:41:00;;;;;;;2.00;1.70;;;24.40;99.90;;;;;;5032989;28;20654;-66
2022/06/30 09:43:34;;;;;;;2.00;1.80;;;24.50;99.90;;;;;;5001549;28;20463;-67
2022/06/30 09:46:00;;;;;;;2.78;2.20;;;24.50;99.90;;;;;;5032855;28;20886;-66
2022/06/30 09:48:28;;;;;;;3.58;2.20;;;24.60;99.90;;;;;;5029759;28;20641;-66
2022/06/30 09:50:58;;;;;;;2.97;2.10;;;24.60;99.90;;;;;;5031158;28;20792;-65
2022/06/30 09:53:23;;;;;;;2.40;2.20;;;24.70;99.90;;;;;;5027826;28;20411;-66
2022/06/30 09:55:49;;;;;;;5.33;2.20;;;24.60;99.90;;;;;;4997465;28;20421;-66
2022/06/30 09:58:35;;;;;;;4.88;2.40;;;24.70;99.90;;;;;;5033071;28;20554;-66
2022/06/30 10:01:01;;;;;;;4.13;2.60;;;24.70;99.90;;;;;;5033430;28;20388;-67
2022/06/30 10:03:27;;;;;;;2.60;2.40;;;24.80;99.90;;;;;;5035409;28;20392;-67
2022/06/30 10:06:14;;;;;;;1.80;1.70;;;24.80;99.90;;;;;;5003892;28;20700;-66
2022/06/30 10:08:40;;;;;;;3.10;2.58;;;24.80;99.90;;;;;;5001585;28;20393;-67
2022/06/30 10:11:06;;;;;;;2.33;2.03;;;24.80;99.90;;;;;;5031712;28;20412;-68
2022/06/30 10:13:40;;;;;;;3.47;1.90;;;24.90;99.90;;;;;;5030874;28;20388;-67
2022/06/30 10:16:07;;;;;;;3.15;2.30;;;24.90;99.90;;;;;;4998174;28;20400;-67
2022/06/30 10:18:37;;;;;;;2.80;2.10;;;25.00;99.90;;;;;;5030074;28;20901;-67
2022/06/30 10:21:04;;;;;;;3.17;2.25;;;25.10;99.90;;;;;;5029722;28;20526;-67
2022/06/30 10:23:31;;;;;;;2.28;2.08;;;25.10;99.90;;;;;;5029529;28;20393;-67
2022/06/30 10:25:56;;;;;;;2.45;2.22;;;25.20;99.90;;;;;;5031419;28;20401;-67
2022/06/30 10:28:24;;;;;;;4.07;2.30;;;25.20;99.90;;;;;;5031406;28;20705;-67
2022/06/30 10:30:55;;;;;;;3.38;2.20;;;25.20;99.90;;;;;;4999863;28;20735;-67
2022/06/30 10:33:36;;;;;;;3.38;2.00;;;25.30;99.90;;;;;;5000091;28;20432;-67
2022/06/30 10:36:31;;;;;;;3.40;2.03;;;25.30;99.90;;;;;;5031035;28;20455;-67
2022/06/30 10:39:17;;;;;;;2.72;2.40;;;25.30;99.90;;;;;;4995830;28;20755;-67
2022/06/30 10:41:44;;;;;;;2.83;2.55;;;25.40;99.90;;;;;;5027585;28;20396;-65
2022/06/30 10:44:15;;;;;;;3.30;3.00;;;25.40;99.90;;;;;;5027274;28;20423;-65
2022/06/30 10:46:55;;;;;;;3.58;2.40;;;25.50;99.90;;;;;;5032241;28;20389;-67
2022/06/30 10:49:22;;;;;;;11.20;4.03;;;25.60;99.90;;;;;;5001733;28;20420;-65
2022/06/30 10:51:48;;;;;;;2.80;2.38;;;25.60;99.90;;;;;;5033076;28;20550;-66
2022/06/30 10:54:34;;;;;;;2.40;2.20;;;25.60;99.90;;;;;;5033294;28;20732;-66
2022/06/30 10:57:01;;;;;;;2.30;2.08;;;25.50;99.90;;;;;;5031791;28;20704;-66
2022/06/30 10:59:42;;;;;;;3.10;2.40;;;25.60;99.90;;;;;;5030565;28;21042;-66
2022/06/30 11:02:08;;;;;;;3.97;2.60;;;25.70;99.90;;;;;;5029196;28;20396;-67
2022/06/30 11:05:12;;;;;;;2.40;2.20;;;25.80;99.90;;;;;;4996978;28;20385;-67
2022/06/30 11:07:38;;;;;;;3.45;2.80;;;25.80;99.90;;;;;;4968427;28;20458;-66
2022/06/30 11:10:04;;;;;;;3.50;2.67;;;25.80;99.90;;;;;;4999888;28;20483;-66
2022/06/30 11:12:31;;;;;;;2.53;2.33;;;25.80;99.90;;;;;;5034043;28;20535;-66
2022/06/30 11:14:58;;;;;;;2.47;2.28;;;25.80;99.90;;;;;;5003280;28;20388;-66
2022/06/30 11:17:27;;;;;;;2.60;2.40;;;25.90;99.90;;;;;;5037731;28;20571;-67
2022/06/30 11:20:09;;;;;;;2.80;2.60;;;26.00;99.90;;;;;;5036714;28;20392;-67
2022/06/30 11:22:36;;;;;;;3.22;2.80;;;26.10;99.90;;;;;;5003791;28;20380;-68
2022/06/30 11:25:08;;;;;;;3.15;2.60;;;26.10;99.90;;;;;;5007326;28;20430;-67
2022/06/30 11:27:36;;;;;;;3.37;2.63;;;26.20;99.90;;;;;;5039813;28;20412;-67
2022/06/30 11:30:11;;;;;;;4.90;3.20;;;26.20;99.90;;;;;;5039526;28;20397;-67
2022/06/30 11:32:38;;;;;;;4.15;2.92;;;26.20;99.90;;;;;;5036690;28;20692;-68
2022/06/30 11:35:04;;;;;;;2.92;2.72;;;26.20;99.90;;;;;;5036940;28;20454;-68
2022/06/30 11:37:34;;;;;;;3.08;2.50;;;26.30;99.90;;;;;;5035934;28;20478;-68
2022/06/30 11:40:05;;;;;;;2.92;2.55;;;26.30;99.90;;;;;;5038061;28;20504;-67
2022/06/30 11:42:31;;;;;;;4.50;3.05;;;26.40;99.90;;;;;;5037943;28;20785;-67
2022/06/30 11:44:57;;;;;;;4.47;2.95;;;26.60;99.90;;;;;;5004262;28;21063;-68
2022/06/30 11:47:23;;;;;;;3.17;2.72;;;26.60;99.90;;;;;;5038984;28;20389;-67
2022/06/30 11:49:55;;;;;;;3.70;2.88;;;26.80;99.90;;;;;;5040782;28;20668;-68
2022/06/30 11:52:27;;;;;;;3.40;2.70;;;26.90;99.90;;;;;;5041297;28;20388;-67
2022/06/30 11:55:12;;;;;;;2.90;2.60;;;26.90;99.90;;;;;;5006485;28;20437;-67
2022/06/30 11:57:48;;;;;;;2.83;2.42;;;27.20;99.90;;;;;;5007282;28;20952;-68
2022/06/30 12:00:23;;;;;;;5.20;3.00;;;27.60;99.90;;;;;;5039903;28;20392;-68
2022/06/30 12:02:49;;;;;;;3.88;2.70;;;28.00;99.90;;;;;;5039233;28;21051;-68
2022/06/30 12:05:17;;;;;;;2.63;2.42;;;28.00;99.90;;;;;;5036899;28;20537;-68
2022/06/30 12:07:46;;;;;;;3.83;2.50;;;28.00;99.90;;;;;;5035757;28;20388;-67
2022/06/30 12:10:14;;;;;;;2.53;2.30;;;28.00;99.90;;;;;;5036766;28;20409;-68
2022/06/30 12:12:40;;;;;;;4.47;3.07;;;28.10;99.90;;;;;;5036385;28;20689;-67
2022/06/30 12:15:15;;;;;;;3.00;2.70;;;28.00;99.90;;;;;;5035704;28;20625;-68
2022/06/30 12:17:43;;;;;;;3.38;2.78;;;28.00;99.90;;;;;;5035708;28;20416;-68
2022/06/30 12:20:11;;;;;;;3.20;2.58;;;28.30;99.90;;;;;;5037102;28;20397;-67
2022/06/30 12:22:48;;;;;;;6.10;2.70;;;28.70;99.90;;;;;;5004933;28;20400;-68
2022/06/30 12:25:16;;;;;;;3.83;2.67;;;29.10;99.90;;;;;;5041346;28;20495;-68
2022/06/30 12:27:44;;;;;;;3.10;2.80;;;29.30;99.90;;;;;;5007050;28;20475;-68
2022/06/30 12:30:12;;;;;;;2.95;2.20;;;29.60;99.90;;;;;;5008577;28;20493;-68
2022/06/30 12:32:37;;;;;;;3.28;2.72;;;29.80;99.90;;;;;;5039507;28;20451;-69
2022/06/30 12:35:06;;;;;;;4.10;2.57;;;29.70;99.90;;;;;;5005593;28;20392;-68
2022/06/30 12:37:38;;;;;;;3.45;2.58;;;29.40;99.90;;;;;;5034924;28;20421;-68
2022/06/30 12:40:13;;;;;;;4.38;2.80;;;29.50;99.90;;;;;;5036042;28;20404;-67
2022/06/30 12:42:41;;;;;;;3.40;2.50;;;29.20;99.90;;;;;;5034798;28;20393;-66
2022/06/30 12:45:42;;;;;;;2.53;2.23;;;29.10;99.90;;;;;;4998325;28;20387;-68
2022/06/30 12:48:08;;;;;;;2.40;2.20;;;29.60;99.90;;;;;;4995482;28;20395;-66
2022/06/30 12:50:35;;;;;;;2.85;2.47;;;30.20;99.90;;;;;;5027816;28;20436;-66
2022/06/30 12:53:24;;;;;;;3.42;2.53;;;30.60;99.90;;;;;;5031320;28;20392;-67
2022/06/30 12:56:02;;;;;;;2.50;2.30;;;30.80;99.90;;;;;;4999299;28;20518;-67
2022/06/30 12:58:42;;;;;;;3.13;2.22;;;30.90;99.90;;;;;;4998133;28;20385;-67
2022/06/30 13:01:08;;;;;;;2.60;2.38;;;31.00;99.90;;;;;;4999766;28;20725;-67
2022/06/30 13:03:48;;;;;;;3.20;2.83;;;30.80;99.90;;;;;;5002960;28;20371;-67